Lamont, Iowa
Current Conditions -  °F | °C
As of 4:15 PM on Sunday 23 Nov 2014 (Local Time) from KOLZ Reporting Station
Haze Haze  
Wind Chill: 45°   Ceiling: 300
Heat Index: 48°   Visibility: 0.75mi
Dew Point: 48°   Wind: 7mph
Humidity: 100%   Direction: 130°SE
Pressure: 29.35"   Gusts: NA
Location:  42.6°N, 91.64°W
Report Text: KOLZ 232215Z AUTO 13006KT 3/4SM BR OVC003 09/09 A2935 RMK AO2
Loading
Personal Weather Stations






























Interactive Weather Map New forecast layout! Learn more

10-Day Weather Forecast

Advertisements
Track Severe Weather on mobile